createdAt,value
2018-11-02T00:02:18.834Z,32.53
2018-11-02T00:04:47.914Z,31.77
2018-11-02T00:07:17.303Z,30.57
2018-11-02T00:09:46.321Z,31.10
2018-11-02T00:12:15.353Z,30.60
2018-11-02T00:14:44.530Z,32.40
2018-11-02T00:17:13.882Z,32.77
2018-11-02T00:19:42.582Z,34.40
2018-11-02T00:22:11.671Z,34.87
2018-11-02T00:24:40.854Z,35.13
2018-11-02T00:27:09.658Z,35.40
2018-11-02T00:29:38.557Z,37.17
2018-11-02T00:32:07.807Z,38.90
2018-11-02T00:34:37.002Z,39.87
2018-11-02T00:37:06.326Z,40.50
2018-11-02T00:39:35.442Z,41.73
2018-11-02T00:42:04.685Z,42.27
2018-11-02T00:44:33.961Z,43.27
2018-11-02T00:47:03.087Z,42.00
2018-11-02T00:49:32.073Z,42.73
2018-11-02T00:52:01.357Z,41.03
2018-11-02T00:54:30.418Z,43.43
2018-11-02T00:56:59.431Z,42.63
2018-11-02T00:59:28.250Z,42.77
2018-11-02T01:01:57.125Z,40.53
2018-11-02T01:04:26.373Z,49.27
2018-11-02T01:06:55.438Z,50.43
2018-11-02T01:09:24.740Z,51.23
2018-11-02T01:11:53.918Z,55.37
2018-11-02T01:14:22.905Z,52.83
2018-11-02T01:16:52.255Z,53.00
2018-11-02T01:19:25.498Z,53.63
2018-11-02T01:21:54.507Z,54.03
2018-11-02T01:24:23.604Z,56.23
2018-11-02T01:26:52.486Z,55.97
2018-11-02T01:29:21.499Z,55.60
2018-11-02T01:31:50.818Z,54.87
2018-11-02T01:34:19.914Z,55.40
2018-11-02T01:36:49.086Z,56.77
2018-11-02T01:39:18.351Z,54.53
2018-11-02T01:41:47.655Z,53.50
2018-11-02T01:44:16.665Z,52.50
2018-11-02T01:46:45.758Z,56.37
2018-11-02T01:49:14.513Z,55.07
2018-11-02T01:51:43.909Z,57.30
2018-11-02T01:54:12.958Z,58.60
2018-11-02T01:56:42.018Z,57.37
2018-11-02T01:59:11.099Z,58.43
2018-11-02T02:01:40.310Z,56.43
2018-11-02T02:04:09.467Z,57.10
2018-11-02T02:06:38.443Z,54.33
2018-11-02T02:09:09.881Z,54.90
2018-11-02T02:11:39.155Z,49.50
2018-11-02T02:14:08.699Z,46.43
2018-11-02T02:16:37.855Z,47.40
2018-11-02T02:19:07.250Z,47.43
2018-11-02T02:21:36.209Z,47.93
2018-11-02T02:24:05.386Z,50.20
2018-11-02T02:26:34.487Z,47.77
2018-11-02T02:29:03.620Z,47.40
2018-11-02T02:31:32.779Z,48.50
2018-11-02T02:34:01.635Z,47.43
2018-11-02T02:36:30.758Z,44.80
2018-11-02T02:38:59.922Z,45.20
2018-11-02T02:41:29.215Z,44.27
2018-11-02T02:43:58.415Z,44.97
2018-11-02T02:46:27.710Z,44.07
2018-11-02T02:48:57.022Z,44.30
2018-11-02T02:51:26.311Z,43.40
2018-11-02T02:53:55.502Z,42.60
2018-11-02T02:56:24.422Z,43.40
2018-11-02T02:58:53.619Z,43.00
2018-11-02T03:01:23.007Z,42.10
2018-11-02T03:03:52.143Z,41.67
2018-11-02T03:06:21.292Z,44.27
2018-11-02T03:08:50.586Z,48.27
2018-11-02T03:11:19.964Z,49.27
2018-11-02T03:13:48.892Z,48.37
2018-11-02T03:16:18.107Z,50.60
2018-11-02T03:18:47.328Z,46.40
2018-11-02T03:21:16.505Z,41.30
2018-11-02T03:23:45.644Z,41.93
2018-11-02T03:26:14.659Z,44.40
2018-11-02T03:28:43.995Z,44.07
2018-11-02T03:31:12.683Z,41.60
2018-11-02T03:33:41.631Z,40.07
2018-11-02T03:36:10.565Z,39.83
2018-11-02T03:38:39.708Z,40.80
2018-11-02T03:41:08.902Z,42.83
2018-11-02T03:43:37.996Z,43.27
2018-11-02T03:46:06.842Z,49.50
2018-11-02T03:48:35.987Z,48.37
2018-11-02T03:51:05.171Z,46.47
2018-11-02T03:53:34.274Z,47.40
2018-11-02T03:56:03.417Z,45.37
2018-11-02T03:58:32.535Z,44.57
2018-11-02T04:01:01.762Z,44.10
2018-11-02T04:03:30.834Z,42.33
2018-11-02T04:06:00.017Z,44.10
2018-11-02T04:08:29.123Z,39.47
2018-11-02T04:10:58.203Z,39.97
2018-11-02T04:13:27.285Z,42.00
2018-11-02T04:15:56.374Z,39.47
2018-11-02T04:18:25.479Z,37.50
2018-11-02T04:20:54.755Z,38.30
2018-11-02T04:23:23.830Z,42.83
2018-11-02T04:25:53.027Z,41.77
2018-11-02T04:28:22.249Z,43.00
2018-11-02T04:30:51.571Z,41.37
2018-11-02T04:33:20.726Z,53.50
2018-11-02T04:35:49.901Z,53.53
2018-11-02T04:38:19.094Z,57.30
2018-11-02T04:40:47.795Z,52.57
2018-11-02T04:43:17.097Z,54.50
2018-11-02T04:45:46.199Z,54.73
2018-11-02T04:48:15.270Z,55.83
2018-11-02T04:50:44.389Z,54.00
2018-11-02T04:53:13.674Z,56.23
2018-11-02T04:55:42.983Z,55.57
2018-11-02T04:58:11.991Z,52.87
2018-11-02T05:00:41.167Z,52.83
2018-11-02T05:03:10.227Z,55.63
2018-11-02T05:05:39.370Z,52.50
2018-11-02T05:08:08.546Z,58.53
2018-11-02T05:10:37.699Z,58.03
2018-11-02T05:13:06.989Z,60.00
2018-11-02T05:15:35.816Z,61.70
2018-11-02T05:18:05.087Z,61.90
2018-11-02T05:20:34.184Z,64.83
2018-11-02T05:23:03.251Z,60.97
2018-11-02T05:25:32.554Z,61.33
2018-11-02T05:28:01.725Z,61.57
2018-11-02T05:30:30.432Z,64.03
2018-11-02T05:32:59.281Z,65.30
2018-11-02T05:35:28.394Z,64.43
2018-11-02T05:37:57.385Z,66.87
2018-11-02T05:40:26.559Z,64.10
2018-11-02T05:42:55.781Z,66.67
2018-11-02T05:45:25.127Z,65.40
2018-11-02T05:47:54.033Z,65.37
2018-11-02T05:50:22.812Z,66.30
2018-11-02T05:52:51.955Z,64.80
2018-11-02T05:55:21.141Z,63.03
2018-11-02T05:57:50.327Z,64.07
2018-11-02T06:00:19.647Z,62.63
2018-11-02T06:02:48.414Z,62.70
2018-11-02T06:05:17.609Z,64.73
2018-11-02T06:07:46.397Z,65.30
2018-11-02T06:10:15.287Z,65.47
2018-11-02T06:12:44.491Z,62.97
2018-11-02T06:15:13.417Z,65.43
2018-11-02T06:17:42.691Z,66.30
2018-11-02T06:20:12.083Z,68.73
2018-11-02T06:22:41.773Z,65.60
2018-11-02T06:25:11.084Z,65.30
2018-11-02T06:27:40.189Z,63.57
2018-11-02T06:30:10.269Z,65.57
2018-11-02T06:32:39.365Z,62.10
2018-11-02T06:35:09.412Z,62.53
2018-11-02T06:37:38.756Z,65.97
2018-11-02T06:40:08.118Z,72.37
2018-11-02T06:42:37.415Z,66.47
2018-11-02T06:45:07.968Z,67.67
2018-11-02T06:47:36.942Z,69.73
2018-11-02T06:50:06.114Z,66.20
2018-11-02T06:52:35.282Z,68.67
2018-11-02T06:55:04.279Z,71.73
2018-11-02T06:57:33.341Z,71.90
2018-11-02T07:00:02.868Z,69.60
2018-11-02T07:02:31.550Z,70.97
2018-11-02T07:05:00.441Z,70.53
2018-11-02T07:07:29.531Z,68.73
2018-11-02T07:09:58.690Z,69.50
2018-11-02T07:12:27.758Z,63.63
2018-11-02T07:14:56.733Z,62.80
2018-11-02T07:17:26.155Z,63.60
2018-11-02T07:19:55.050Z,61.57
2018-11-02T07:22:23.902Z,58.90
2018-11-02T07:24:53.045Z,73.07
2018-11-02T07:27:22.293Z,74.70
2018-11-02T07:29:51.566Z,86.07
2018-11-02T07:32:20.779Z,69.23
2018-11-02T07:34:49.728Z,63.90
2018-11-02T07:37:18.571Z,66.07
2018-11-02T07:39:47.679Z,67.43
2018-11-02T07:42:16.811Z,61.37
2018-11-02T07:44:45.837Z,59.77
2018-11-02T07:47:15.122Z,55.27
2018-11-02T07:49:44.493Z,56.80
2018-11-02T07:52:13.717Z,54.67
2018-11-02T07:54:42.642Z,52.20
2018-11-02T07:57:11.698Z,52.80
2018-11-02T07:59:41.049Z,52.63
2018-11-02T08:02:10.215Z,51.50
2018-11-02T08:04:39.373Z,51.67
2018-11-02T08:07:08.670Z,50.90
2018-11-02T08:09:37.865Z,52.77
2018-11-02T08:12:07.226Z,52.13
2018-11-02T08:14:36.374Z,46.47
2018-11-02T08:17:05.430Z,50.50
2018-11-02T08:19:34.575Z,50.73
2018-11-02T08:22:03.662Z,52.93
2018-11-02T08:24:32.555Z,60.23
2018-11-02T08:27:01.252Z,59.63
2018-11-02T08:29:30.315Z,69.27
2018-11-02T08:31:59.070Z,56.00
2018-11-02T08:34:28.010Z,52.63
2018-11-02T08:36:57.041Z,51.33
2018-11-02T08:39:26.022Z,45.60
2018-11-02T08:41:55.434Z,39.87
2018-11-02T08:44:24.587Z,40.30
2018-11-02T08:46:53.671Z,43.03
2018-11-02T08:49:22.363Z,42.77
2018-11-02T08:51:51.462Z,40.83
2018-11-02T08:54:20.655Z,43.10
2018-11-02T08:56:49.589Z,46.77
2018-11-02T08:59:18.805Z,42.97
2018-11-02T09:01:47.929Z,37.67
2018-11-02T09:04:16.930Z,37.20
2018-11-02T09:06:46.011Z,39.17
2018-11-02T09:09:15.213Z,40.93
2018-11-02T09:11:44.208Z,38.30
2018-11-02T09:14:13.499Z,36.67
2018-11-02T09:16:42.599Z,35.93
2018-11-02T09:19:11.985Z,34.20
2018-11-02T09:21:40.757Z,31.87
2018-11-02T09:24:09.691Z,30.80
2018-11-02T09:26:38.787Z,36.53
2018-11-02T09:29:07.599Z,37.47
2018-11-02T09:31:36.433Z,37.60
2018-11-02T09:34:05.355Z,39.00
2018-11-02T09:36:34.407Z,36.37
2018-11-02T09:39:04.223Z,34.50
2018-11-02T09:41:33.108Z,35.13
2018-11-02T09:44:01.982Z,34.57
2018-11-02T09:46:31.075Z,31.13
2018-11-02T09:49:00.334Z,35.90
2018-11-02T09:51:29.686Z,34.70
2018-11-02T09:53:58.631Z,35.10
2018-11-02T09:56:27.822Z,36.07
2018-11-02T09:58:56.982Z,35.33
2018-11-02T10:01:26.154Z,36.33
2018-11-02T10:03:55.247Z,36.70
2018-11-02T10:06:23.949Z,39.53
2018-11-02T10:08:52.918Z,33.60
2018-11-02T10:11:22.196Z,31.80
2018-11-02T10:13:51.222Z,33.77
2018-11-02T10:16:20.478Z,34.67
2018-11-02T10:18:49.683Z,35.07
2018-11-02T10:21:18.738Z,34.17
2018-11-02T10:23:47.734Z,32.33
2018-11-02T10:26:17.012Z,32.70
2018-11-02T10:28:46.099Z,34.67
2018-11-02T10:31:15.147Z,32.93
2018-11-02T10:33:44.444Z,32.67
2018-11-02T10:36:13.725Z,40.03
2018-11-02T10:38:43.123Z,48.73
2018-11-02T10:41:14.894Z,34.33
2018-11-02T10:43:44.150Z,38.87
2018-11-02T10:46:13.243Z,44.07
2018-11-02T10:48:42.339Z,35.60
2018-11-02T10:51:11.548Z,35.57
2018-11-02T10:53:40.784Z,33.87
2018-11-02T10:56:09.979Z,35.63
2018-11-02T10:58:39.312Z,34.23
2018-11-02T11:01:13.574Z,32.20
2018-11-02T11:03:42.869Z,33.93
2018-11-02T11:06:12.143Z,34.93
2018-11-02T11:08:41.366Z,37.07
2018-11-02T11:11:10.303Z,34.97
2018-11-02T11:13:39.695Z,41.13
2018-11-02T11:16:08.658Z,36.13
2018-11-02T11:18:37.869Z,36.67
2018-11-02T11:21:07.080Z,33.93
2018-11-02T11:23:36.374Z,35.73
2018-11-02T11:26:05.771Z,34.13
2018-11-02T11:28:35.110Z,34.27
2018-11-02T11:31:04.368Z,33.43
2018-11-02T11:33:33.691Z,36.23
2018-11-02T11:36:02.838Z,38.43
2018-11-02T11:38:33.985Z,35.73
2018-11-02T11:41:03.202Z,35.67
2018-11-02T11:43:32.541Z,34.20
2018-11-02T11:46:01.741Z,37.83
2018-11-02T11:48:31.057Z,37.57
2018-11-02T11:50:59.919Z,35.73
2018-11-02T11:53:28.728Z,36.20
2018-11-02T11:55:57.818Z,35.40
2018-11-02T11:58:26.850Z,35.23
2018-11-02T12:00:56.151Z,38.07
2018-11-02T12:03:25.003Z,37.77
2018-11-02T12:05:54.295Z,38.47
2018-11-02T12:08:23.583Z,37.87
2018-11-02T12:10:52.725Z,39.03
2018-11-02T12:13:22.030Z,41.80
2018-11-02T12:15:50.921Z,38.90
2018-11-02T12:18:20.127Z,39.30
2018-11-02T12:20:49.458Z,38.43
2018-11-02T12:23:18.719Z,44.20
2018-11-02T12:25:47.832Z,41.43
2018-11-02T12:28:17.169Z,40.37
2018-11-02T12:30:46.343Z,40.73
2018-11-02T12:33:15.145Z,39.10
2018-11-02T12:35:44.037Z,39.47
2018-11-02T12:38:12.982Z,38.47
2018-11-02T12:40:42.171Z,39.07
2018-11-02T12:43:11.207Z,39.47
2018-11-02T12:45:40.121Z,42.90
2018-11-02T12:48:08.975Z,47.47
2018-11-02T12:50:38.070Z,42.80
2018-11-02T12:53:07.146Z,43.67
2018-11-02T12:55:36.064Z,54.80
2018-11-02T12:58:05.472Z,37.77
2018-11-02T13:00:34.600Z,44.53
2018-11-02T13:03:03.642Z,46.53
2018-11-02T13:05:32.498Z,40.27
2018-11-02T13:08:01.488Z,54.90
2018-11-02T13:10:30.794Z,42.70
2018-11-02T13:13:00.022Z,44.87
2018-11-02T13:15:29.155Z,42.70
2018-11-02T13:17:58.300Z,45.73
2018-11-02T13:20:27.124Z,54.67
2018-11-02T13:22:56.417Z,47.03
2018-11-02T13:25:25.637Z,41.53
2018-11-02T13:27:54.818Z,43.27
2018-11-02T13:30:24.100Z,39.87
2018-11-02T13:32:53.201Z,40.90
2018-11-02T13:35:22.128Z,42.30
2018-11-02T13:37:51.466Z,41.83
2018-11-02T13:40:20.745Z,38.80
2018-11-02T13:42:49.961Z,40.80
2018-11-02T13:45:19.495Z,41.80
2018-11-02T13:47:48.753Z,41.13
2018-11-02T13:50:17.973Z,42.70
2018-11-02T13:52:47.103Z,44.83
2018-11-02T13:55:16.235Z,48.00
2018-11-02T13:57:45.957Z,43.90
2018-11-02T14:00:17.159Z,44.03
2018-11-02T14:02:46.482Z,45.13
2018-11-02T14:05:16.506Z,46.80
2018-11-02T14:07:45.801Z,47.83
2018-11-02T14:10:15.130Z,46.77
2018-11-02T14:12:44.310Z,44.70
2018-11-02T14:15:14.778Z,46.97
2018-11-02T14:17:43.815Z,42.40
2018-11-02T14:20:13.547Z,53.20
2018-11-02T14:22:42.714Z,49.17
2018-11-02T14:25:13.362Z,44.23
2018-11-02T14:27:42.389Z,44.20
2018-11-02T14:30:13.410Z,46.13
2018-11-02T14:32:42.692Z,43.90
2018-11-02T14:35:12.170Z,40.63
2018-11-02T14:37:41.352Z,43.70
2018-11-02T14:40:11.171Z,40.20
2018-11-02T14:42:41.061Z,38.20
2018-11-02T14:45:11.862Z,40.27
2018-11-02T14:47:41.133Z,39.20
2018-11-02T14:50:10.823Z,38.40
2018-11-02T14:52:39.907Z,37.53
2018-11-02T14:55:09.351Z,40.23
2018-11-02T14:57:38.762Z,37.17
2018-11-02T15:00:09.230Z,38.43
2018-11-02T15:02:38.534Z,42.00
2018-11-02T15:05:08.650Z,38.77
2018-11-02T15:07:37.887Z,41.03
2018-11-02T15:10:06.994Z,43.80
2018-11-02T15:12:36.410Z,43.63
2018-11-02T15:15:05.682Z,44.80
2018-11-02T15:17:35.046Z,44.57
2018-11-02T15:20:04.190Z,44.93
2018-11-02T15:22:33.298Z,43.80
2018-11-02T15:25:02.619Z,42.63
2018-11-02T15:27:31.470Z,43.33
2018-11-02T15:30:00.666Z,39.20
2018-11-02T15:32:29.498Z,43.00
2018-11-02T15:34:58.375Z,46.37
2018-11-02T15:37:27.290Z,44.40
2018-11-02T15:39:57.166Z,41.77
2018-11-02T15:42:26.155Z,42.70
2018-11-02T15:44:55.390Z,46.23
2018-11-02T15:47:25.453Z,73.83
2018-11-02T15:49:54.648Z,79.53
2018-11-02T15:52:23.481Z,87.03
2018-11-02T15:54:52.774Z,92.37
2018-11-02T15:57:21.577Z,91.83
2018-11-02T15:59:50.622Z,88.07
2018-11-02T16:02:19.974Z,79.07
2018-11-02T16:04:49.323Z,70.80
2018-11-02T16:07:18.541Z,91.00
2018-11-02T16:09:47.599Z,79.30
2018-11-02T16:12:16.702Z,70.30
2018-11-02T16:14:45.591Z,61.50
2018-11-02T16:17:14.799Z,73.50
2018-11-02T16:19:43.994Z,71.13
2018-11-02T16:22:13.301Z,79.53
2018-11-02T16:24:42.286Z,83.20
2018-11-02T16:27:11.454Z,77.20
2018-11-02T16:29:40.438Z,75.17
2018-11-02T16:32:09.659Z,68.70
2018-11-02T16:34:38.467Z,51.03
2018-11-02T16:37:07.658Z,53.10
2018-11-02T16:39:36.436Z,65.13
2018-11-02T16:42:05.810Z,80.50
2018-11-02T16:44:35.159Z,72.43
2018-11-02T16:47:04.465Z,77.07
2018-11-02T16:49:33.858Z,64.37
2018-11-02T16:52:03.259Z,75.63
2018-11-02T16:54:32.840Z,53.30
2018-11-02T16:57:02.050Z,49.93
2018-11-02T16:59:31.046Z,52.10
2018-11-02T17:02:00.278Z,51.00
2018-11-02T17:04:29.482Z,49.83
2018-11-02T17:06:58.626Z,48.80
2018-11-02T17:09:27.804Z,54.33
2018-11-02T17:11:57.025Z,66.60
2018-11-02T17:14:26.477Z,67.10
2018-11-02T17:16:55.411Z,58.87
2018-11-02T17:19:24.711Z,60.40
2018-11-02T17:21:53.926Z,59.63
2018-11-02T17:24:22.807Z,58.70
2018-11-02T17:26:52.105Z,58.77
2018-11-02T17:29:20.894Z,59.17
2018-11-02T17:31:50.063Z,61.10
2018-11-02T17:34:19.038Z,59.50
2018-11-02T17:36:48.070Z,64.90
2018-11-02T17:39:16.926Z,66.97
2018-11-02T17:41:46.211Z,74.53
2018-11-02T17:44:15.358Z,62.90
2018-11-02T17:46:44.420Z,61.47
2018-11-02T17:49:13.624Z,65.43
2018-11-02T17:51:42.742Z,72.90
2018-11-02T17:54:12.749Z,79.37
2018-11-02T17:56:42.048Z,73.13
2018-11-02T17:59:11.341Z,63.50
2018-11-02T18:01:40.590Z,62.73
2018-11-02T18:04:09.428Z,65.33
2018-11-02T18:06:39.195Z,67.37
2018-11-02T18:09:10.450Z,81.30
2018-11-02T18:11:39.684Z,58.87
2018-11-02T18:14:09.251Z,58.53
2018-11-02T18:16:38.025Z,56.97
2018-11-02T18:19:06.874Z,57.27
2018-11-02T18:21:36.651Z,59.20
2018-11-02T18:24:05.706Z,58.63
2018-11-02T18:26:34.880Z,54.57
2018-11-02T18:29:03.693Z,52.20
2018-11-02T18:31:32.455Z,52.40
2018-11-02T18:34:01.559Z,57.13
2018-11-02T18:36:30.336Z,54.30
2018-11-02T18:38:59.172Z,50.93
2018-11-02T18:41:28.314Z,51.37
2018-11-02T18:43:57.559Z,53.67
2018-11-02T18:46:26.837Z,50.00
2018-11-02T18:48:55.996Z,55.33
2018-11-02T18:51:25.289Z,52.60
2018-11-02T18:53:54.656Z,49.87
2018-11-02T18:56:24.069Z,50.77
2018-11-02T18:58:52.847Z,54.80
2018-11-02T19:01:21.823Z,73.57
2018-11-02T19:03:51.118Z,66.57
2018-11-02T19:06:21.148Z,56.43
2018-11-02T19:08:51.493Z,49.07
2018-11-02T19:11:21.398Z,47.10
2018-11-02T19:13:50.594Z,50.53
2018-11-02T19:16:20.494Z,51.47
2018-11-02T19:18:49.459Z,53.10
2018-11-02T19:21:18.781Z,53.43
2018-11-02T19:23:47.995Z,49.77
2018-11-02T19:26:17.003Z,70.27
2018-11-02T19:28:46.131Z,76.03
2018-11-02T19:31:15.438Z,73.07
2018-11-02T19:33:44.881Z,69.30
2018-11-02T19:36:14.205Z,66.10
2018-11-02T19:38:43.447Z,73.33
2018-11-02T19:41:12.475Z,66.23
2018-11-02T19:43:41.530Z,63.80
2018-11-02T19:46:10.825Z,97.97
2018-11-02T19:48:40.142Z,102.33
2018-11-02T19:51:09.217Z,83.03
2018-11-02T19:53:38.647Z,61.27
2018-11-02T19:56:07.706Z,59.37
2018-11-02T19:58:37.054Z,54.53
2018-11-02T20:01:06.280Z,53.43
2018-11-02T20:03:35.329Z,51.73
2018-11-02T20:06:04.522Z,54.00
2018-11-02T20:08:33.634Z,52.33
2018-11-02T20:11:02.630Z,49.97
2018-11-02T20:13:31.757Z,50.97
2018-11-02T20:16:00.818Z,59.20
2018-11-02T20:18:29.718Z,52.10
2018-11-02T20:20:58.642Z,51.67
2018-11-02T20:23:27.949Z,54.10
2018-11-02T20:25:57.347Z,55.20
2018-11-02T20:28:26.667Z,55.80
2018-11-02T20:33:29.713Z,51.57
2018-11-02T20:35:58.801Z,58.70
2018-11-02T20:38:28.038Z,55.63
2018-11-02T20:40:57.234Z,51.30
2018-11-02T20:43:26.098Z,52.37
2018-11-02T20:45:55.074Z,57.90
2018-11-02T20:48:24.226Z,54.67
2018-11-02T20:50:53.408Z,58.37
2018-11-02T20:53:22.619Z,57.97
2018-11-02T20:55:51.812Z,57.63
2018-11-02T20:58:20.590Z,58.27
2018-11-02T21:00:49.537Z,52.03
2018-11-02T21:03:18.395Z,53.77
2018-11-02T21:05:47.306Z,55.00
2018-11-02T21:08:16.439Z,53.07
2018-11-02T21:10:45.475Z,51.13
2018-11-02T21:13:14.558Z,48.87
2018-11-02T21:15:43.682Z,47.50
2018-11-02T21:18:12.637Z,47.97
2018-11-02T21:20:41.862Z,45.87
2018-11-02T21:23:10.939Z,46.07
2018-11-02T21:25:40.154Z,46.37
2018-11-02T21:28:09.433Z,45.50
2018-11-02T21:30:38.607Z,44.77
2018-11-02T21:33:07.334Z,45.43
2018-11-02T21:35:36.547Z,44.77
2018-11-02T21:38:05.695Z,44.93
2018-11-02T21:40:34.654Z,44.90
2018-11-02T21:43:03.776Z,44.43
2018-11-02T21:45:32.974Z,42.53
2018-11-02T21:48:01.702Z,44.37
2018-11-02T21:50:30.845Z,46.00
2018-11-02T21:52:59.870Z,45.43
2018-11-02T21:55:29.062Z,48.30
2018-11-02T21:57:58.372Z,48.73
2018-11-02T22:00:27.522Z,50.77
2018-11-02T22:02:56.753Z,50.33
2018-11-02T22:05:26.059Z,49.33
2018-11-02T22:07:55.235Z,51.07
2018-11-02T22:10:24.422Z,50.90
2018-11-02T22:12:53.426Z,51.40
2018-11-02T22:15:22.722Z,49.73
2018-11-02T22:17:51.923Z,52.37
2018-11-02T22:20:20.950Z,51.53
2018-11-02T22:22:50.158Z,52.33
2018-11-02T22:25:19.314Z,52.90
2018-11-02T22:27:48.502Z,51.20
2018-11-02T22:30:18.218Z,54.20
2018-11-02T22:32:47.529Z,54.13
2018-11-02T22:35:17.039Z,57.67
2018-11-02T22:37:46.422Z,59.77
2018-11-02T22:40:15.654Z,61.90
2018-11-02T22:42:45.122Z,62.10
2018-11-02T22:45:14.993Z,57.80
2018-11-02T22:47:48.183Z,59.67
2018-11-02T22:50:17.318Z,60.43
2018-11-02T22:52:46.570Z,61.73
2018-11-02T22:55:15.518Z,62.77
2018-11-02T22:57:44.527Z,72.90
2018-11-02T23:00:16.190Z,79.93
2018-11-02T23:02:46.099Z,78.03
2018-11-02T23:05:15.206Z,78.80
2018-11-02T23:07:44.782Z,74.87
2018-11-02T23:10:14.076Z,93.00
2018-11-02T23:12:43.162Z,99.50
2018-11-02T23:15:12.878Z,96.17
2018-11-02T23:17:42.233Z,87.07
2018-11-02T23:20:13.113Z,90.70
2018-11-02T23:22:42.426Z,109.77
2018-11-02T23:25:12.073Z,95.20
2018-11-02T23:27:42.244Z,93.83
2018-11-02T23:30:11.764Z,90.37
2018-11-02T23:32:40.746Z,86.77
2018-11-02T23:35:11.042Z,83.87
2018-11-02T23:37:40.190Z,78.70
2018-11-02T23:40:10.773Z,71.03
2018-11-02T23:42:39.884Z,75.67
2018-11-02T23:45:09.734Z,82.97
2018-11-02T23:47:39.039Z,84.63
2018-11-02T23:50:09.922Z,87.60
2018-11-02T23:52:38.937Z,84.33
2018-11-02T23:55:08.029Z,86.73
2018-11-02T23:57:37.158Z,90.53
